sensor_id;sensor_type;location;lat;lon;timestamp;pressure;altitude;pressure_sealevel;temperature;humidity
15678;BME280;7939;50.814;6.368;2024-03-02T00:00:38;98350.81;;;12.35;56.55
15678;BME280;7939;50.814;6.368;2024-03-02T00:03:06;98344.03;;;12.34;56.00
15678;BME280;7939;50.814;6.368;2024-03-02T00:05:36;98342.28;;;12.35;56.19
15678;BME280;7939;50.814;6.368;2024-03-02T00:08:05;98336.34;;;12.34;56.44
15678;BME280;7939;50.814;6.368;2024-03-02T00:10:36;98332.06;;;12.35;55.96
15678;BME280;7939;50.814;6.368;2024-03-02T00:13:05;98338.84;;;12.36;56.02
15678;BME280;7939;50.814;6.368;2024-03-02T00:15:41;98340.56;;;12.35;56.11
15678;BME280;7939;50.814;6.368;2024-03-02T00:18:10;98340.56;;;12.35;56.52
15678;BME280;7939;50.814;6.368;2024-03-02T00:20:39;98341.41;;;12.36;56.41
15678;BME280;7939;50.814;6.368;2024-03-02T00:23:07;98334.59;;;12.35;56.45
15678;BME280;7939;50.814;6.368;2024-03-02T00:25:40;98332.88;;;12.35;55.24
15678;BME280;7939;50.814;6.368;2024-03-02T00:28:13;98342.28;;;12.35;56.27
15678;BME280;7939;50.814;6.368;2024-03-02T00:30:55;98335.44;;;12.35;56.16
15678;BME280;7939;50.814;6.368;2024-03-02T00:33:22;98342.25;;;12.36;56.44
15678;BME280;7939;50.814;6.368;2024-03-02T00:35:51;98336.34;;;12.34;55.98
15678;BME280;7939;50.814;6.368;2024-03-02T00:38:17;98340.56;;;12.35;55.52
15678;BME280;7939;50.814;6.368;2024-03-02T00:40:45;98348.19;;;12.37;55.46
15678;BME280;7939;50.814;6.368;2024-03-02T00:43:43;98338.78;;;12.37;56.18
15678;BME280;7939;50.814;6.368;2024-03-02T00:46:11;98340.50;;;12.37;55.94
15678;BME280;7939;50.814;6.368;2024-03-02T00:48:40;98342.25;;;12.36;55.59
15678;BME280;7939;50.814;6.368;2024-03-02T00:51:13;98339.69;;;12.36;55.46
15678;BME280;7939;50.814;6.368;2024-03-02T00:53:39;98335.38;;;12.37;55.59
15678;BME280;7939;50.814;6.368;2024-03-02T00:56:09;98336.28;;;12.36;55.63
15678;BME280;7939;50.814;6.368;2024-03-02T00:58:36;98338.84;;;12.36;56.19
15678;BME280;7939;50.814;6.368;2024-03-02T01:01:03;98334.50;;;12.38;56.37
15678;BME280;7939;50.814;6.368;2024-03-02T01:03:31;98337.94;;;12.38;56.36
15678;BME280;7939;50.814;6.368;2024-03-02T01:05:58;98344.72;;;12.39;56.05
15678;BME280;7939;50.814;6.368;2024-03-02T01:08:26;98328.53;;;12.37;55.59
15678;BME280;7939;50.814;6.368;2024-03-02T01:10:52;98331.94;;;12.38;55.91
15678;BME280;7939;50.814;6.368;2024-03-02T01:13:21;98342.19;;;12.38;56.33
15678;BME280;7939;50.814;6.368;2024-03-02T01:15:47;98341.34;;;12.37;56.66
15678;BME280;7939;50.814;6.368;2024-03-02T01:18:14;98335.38;;;12.37;55.80
15678;BME280;7939;50.814;6.368;2024-03-02T01:20:41;98338.75;;;12.39;56.25
15678;BME280;7939;50.814;6.368;2024-03-02T01:23:08;98339.59;;;12.39;55.44
15678;BME280;7939;50.814;6.368;2024-03-02T01:25:36;98342.16;;;12.39;56.21
15678;BME280;7939;50.814;6.368;2024-03-02T01:28:03;98338.75;;;12.39;55.92
15678;BME280;7939;50.814;6.368;2024-03-02T01:30:30;98344.72;;;12.39;55.97
15678;BME280;7939;50.814;6.368;2024-03-02T01:32:57;98348.19;;;12.38;55.91
15678;BME280;7939;50.814;6.368;2024-03-02T01:35:24;98348.13;;;12.40;55.74
15678;BME280;7939;50.814;6.368;2024-03-02T01:37:52;98359.22;;;12.40;56.56
15678;BME280;7939;50.814;6.368;2024-03-02T01:40:18;98346.41;;;12.40;55.36
15678;BME280;7939;50.814;6.368;2024-03-02T01:42:47;98356.66;;;12.40;55.59
15678;BME280;7939;50.814;6.368;2024-03-02T01:45:13;98357.53;;;12.39;56.71
15678;BME280;7939;50.814;6.368;2024-03-02T01:47:40;98356.69;;;12.39;55.82
15678;BME280;7939;50.814;6.368;2024-03-02T01:50:07;98353.25;;;12.40;55.58
15678;BME280;7939;50.814;6.368;2024-03-02T01:52:34;98355.81;;;12.40;56.19
15678;BME280;7939;50.814;6.368;2024-03-02T01:55:01;98358.38;;;12.40;56.03
15678;BME280;7939;50.814;6.368;2024-03-02T01:57:29;98378.81;;;12.41;56.27
15678;BME280;7939;50.814;6.368;2024-03-02T01:59:57;98368.56;;;12.41;55.64
15678;BME280;7939;50.814;6.368;2024-03-02T02:02:24;98368.63;;;12.40;56.27
15678;BME280;7939;50.814;6.368;2024-03-02T02:04:51;98359.22;;;12.40;55.54
15678;BME280;7939;50.814;6.368;2024-03-02T02:07:18;98362.66;;;12.39;56.09
15678;BME280;7939;50.814;6.368;2024-03-02T02:09:45;98366.06;;;12.40;56.37
15678;BME280;7939;50.814;6.368;2024-03-02T02:12:11;98370.25;;;12.42;55.45
15678;BME280;7939;50.814;6.368;2024-03-02T02:14:38;98371.97;;;12.42;55.94
15678;BME280;7939;50.814;6.368;2024-03-02T02:17:07;98371.91;;;12.43;55.83
15678;BME280;7939;50.814;6.368;2024-03-02T02:19:34;98368.50;;;12.43;56.00
15678;BME280;7939;50.814;6.368;2024-03-02T02:22:02;98370.19;;;12.44;55.64
15678;BME280;7939;50.814;6.368;2024-03-02T02:24:28;98359.09;;;12.43;56.79
15678;BME280;7939;50.814;6.368;2024-03-02T02:26:55;98365.94;;;12.43;56.12
15678;BME280;7939;50.814;6.368;2024-03-02T02:29:22;98351.41;;;12.43;56.46
15678;BME280;7939;50.814;6.368;2024-03-02T02:31:48;98353.13;;;12.43;56.57
15678;BME280;7939;50.814;6.368;2024-03-02T02:34:16;98355.69;;;12.43;56.79
15678;BME280;7939;50.814;6.368;2024-03-02T02:36:42;98358.25;;;12.43;56.12
15678;BME280;7939;50.814;6.368;2024-03-02T02:39:14;98361.66;;;12.43;57.10
15678;BME280;7939;50.814;6.368;2024-03-02T02:41:42;98351.47;;;12.42;56.25
15678;BME280;7939;50.814;6.368;2024-03-02T02:44:09;98360.00;;;12.42;56.85
15678;BME280;7939;50.814;6.368;2024-03-02T02:46:38;98360.81;;;12.43;56.10
15678;BME280;7939;50.814;6.368;2024-03-02T02:49:05;98364.28;;;12.42;57.19
15678;BME280;7939;50.814;6.368;2024-03-02T02:51:31;98355.75;;;12.41;57.37
15678;BME280;7939;50.814;6.368;2024-03-02T02:53:58;98363.44;;;12.41;57.06
15678;BME280;7939;50.814;6.368;2024-03-02T02:56:26;98360.94;;;12.40;56.70
15678;BME280;7939;50.814;6.368;2024-03-02T02:58:53;98358.25;;;12.43;56.58
15678;BME280;7939;50.814;6.368;2024-03-02T03:01:20;98354.03;;;12.42;56.08
15678;BME280;7939;50.814;6.368;2024-03-02T03:03:46;98354.88;;;12.42;56.41
15678;BME280;7939;50.814;6.368;2024-03-02T03:06:13;98361.72;;;12.42;56.76
15678;BME280;7939;50.814;6.368;2024-03-02T03:08:40;98366.91;;;12.40;56.93
15678;BME280;7939;50.814;6.368;2024-03-02T03:11:07;98370.25;;;12.42;56.92
15678;BME280;7939;50.814;6.368;2024-03-02T03:13:35;98373.69;;;12.41;57.28
15678;BME280;7939;50.814;6.368;2024-03-02T03:16:02;98359.25;;;12.39;57.36
15678;BME280;7939;50.814;6.368;2024-03-02T03:18:29;98369.47;;;12.40;57.06
15678;BME280;7939;50.814;6.368;2024-03-02T03:20:56;98350.69;;;12.40;57.16
15678;BME280;7939;50.814;6.368;2024-03-02T03:23:22;98358.38;;;12.40;56.92
15678;BME280;7939;50.814;6.368;2024-03-02T03:25:49;98363.44;;;12.41;57.39
15678;BME280;7939;50.814;6.368;2024-03-02T03:28:16;98366.06;;;12.40;57.31
15678;BME280;7939;50.814;6.368;2024-03-02T03:30:44;98348.13;;;12.40;56.26
15678;BME280;7939;50.814;6.368;2024-03-02T03:33:11;98354.03;;;12.42;56.67
15678;BME280;7939;50.814;6.368;2024-03-02T03:35:38;98361.78;;;12.40;57.72
15678;BME280;7939;50.814;6.368;2024-03-02T03:38:04;98363.44;;;12.41;57.16
15678;BME280;7939;50.814;6.368;2024-03-02T03:40:31;98355.75;;;12.41;57.34
15678;BME280;7939;50.814;6.368;2024-03-02T03:42:57;98358.31;;;12.41;56.47
15678;BME280;7939;50.814;6.368;2024-03-02T03:45:25;98351.53;;;12.40;56.92
15678;BME280;7939;50.814;6.368;2024-03-02T03:47:54;98338.75;;;12.39;57.42
15678;BME280;7939;50.814;6.368;2024-03-02T03:50:21;98348.97;;;12.40;56.47
15678;BME280;7939;50.814;6.368;2024-03-02T03:52:47;98351.53;;;12.40;56.72
15678;BME280;7939;50.814;6.368;2024-03-02T03:55:14;98341.34;;;12.39;57.32
15678;BME280;7939;50.814;6.368;2024-03-02T03:57:41;98348.13;;;12.40;57.29
15678;BME280;7939;50.814;6.368;2024-03-02T04:00:08;98349.00;;;12.39;57.39
15678;BME280;7939;50.814;6.368;2024-03-02T04:02:36;98353.31;;;12.38;57.45
15678;BME280;7939;50.814;6.368;2024-03-02T04:05:05;98354.97;;;12.39;57.45
15678;BME280;7939;50.814;6.368;2024-03-02T04:07:35;98359.25;;;12.39;56.44
15678;BME280;7939;50.814;6.368;2024-03-02T04:10:07;98362.66;;;12.39;57.00
15678;BME280;7939;50.814;6.368;2024-03-02T04:12:35;98361.00;;;12.38;57.82
15678;BME280;7939;50.814;6.368;2024-03-02T04:15:03;98351.59;;;12.37;57.13
15678;BME280;7939;50.814;6.368;2024-03-02T04:17:31;98344.75;;;12.38;56.93
15678;BME280;7939;50.814;6.368;2024-03-02T04:19:59;98356.72;;;12.37;56.51
15678;BME280;7939;50.814;6.368;2024-03-02T04:22:27;98349.00;;;12.39;57.66
15678;BME280;7939;50.814;6.368;2024-03-02T04:24:54;98354.16;;;12.37;57.30
15678;BME280;7939;50.814;6.368;2024-03-02T04:27:21;98343.06;;;12.37;57.26
15678;BME280;7939;50.814;6.368;2024-03-02T04:29:48;98341.34;;;12.37;57.53
15678;BME280;7939;50.814;6.368;2024-03-02T04:32:15;98344.81;;;12.36;57.05
15678;BME280;7939;50.814;6.368;2024-03-02T04:34:41;98343.06;;;12.37;56.69
15678;BME280;7939;50.814;6.368;2024-03-02T04:37:10;98355.94;;;12.35;56.43
15678;BME280;7939;50.814;6.368;2024-03-02T04:39:41;98356.78;;;12.36;56.82
15678;BME280;7939;50.814;6.368;2024-03-02T04:42:07;98367.06;;;12.34;57.64
15678;BME280;7939;50.814;6.368;2024-03-02T04:44:34;98372.16;;;12.36;57.98
15678;BME280;7939;50.814;6.368;2024-03-02T04:47:01;98372.19;;;12.34;57.44
15678;BME280;7939;50.814;6.368;2024-03-02T04:49:27;98368.75;;;12.35;56.99
15678;BME280;7939;50.814;6.368;2024-03-02T04:51:54;98372.16;;;12.36;57.09
15678;BME280;7939;50.814;6.368;2024-03-02T04:54:22;98365.31;;;12.36;57.04
15678;BME280;7939;50.814;6.368;2024-03-02T04:56:50;98359.41;;;12.34;57.11
15678;BME280;7939;50.814;6.368;2024-03-02T04:59:17;98363.63;;;12.35;56.80
15678;BME280;7939;50.814;6.368;2024-03-02T05:01:44;98371.31;;;12.35;57.17
15678;BME280;7939;50.814;6.368;2024-03-02T05:04:11;98371.31;;;12.35;56.95
15678;BME280;7939;50.814;6.368;2024-03-02T05:06:38;98363.69;;;12.34;57.44
15678;BME280;7939;50.814;6.368;2024-03-02T05:09:06;98373.09;;;12.33;57.52
15678;BME280;7939;50.814;6.368;2024-03-02T05:11:33;98377.31;;;12.34;57.38
15678;BME280;7939;50.814;6.368;2024-03-02T05:14:26;98373.09;;;12.33;57.25
15678;BME280;7939;50.814;6.368;2024-03-02T05:16:54;98377.38;;;12.33;57.63
15678;BME280;7939;50.814;6.368;2024-03-02T05:19:20;98365.41;;;12.33;57.39
15678;BME280;7939;50.814;6.368;2024-03-02T05:21:47;98368.81;;;12.34;56.92
15678;BME280;7939;50.814;6.368;2024-03-02T05:24:15;98370.53;;;12.33;57.28
15678;BME280;7939;50.814;6.368;2024-03-02T05:26:41;98377.38;;;12.33;57.11
15678;BME280;7939;50.814;6.368;2024-03-02T05:29:09;98376.53;;;12.32;56.74
15678;BME280;7939;50.814;6.368;2024-03-02T05:31:37;98381.69;;;12.31;57.31
15678;BME280;7939;50.814;6.368;2024-03-02T05:34:03;98378.22;;;12.32;57.37
15678;BME280;7939;50.814;6.368;2024-03-02T05:36:30;98383.34;;;12.33;57.51
15678;BME280;7939;50.814;6.368;2024-03-02T05:38:57;98397.03;;;12.32;57.66
15678;BME280;7939;50.814;6.368;2024-03-02T05:41:24;98388.47;;;12.32;57.89
15678;BME280;7939;50.814;6.368;2024-03-02T05:43:50;98383.34;;;12.32;57.94
15678;BME280;7939;50.814;6.368;2024-03-02T05:46:17;98395.31;;;12.31;57.13
15678;BME280;7939;50.814;6.368;2024-03-02T05:48:45;98395.31;;;12.31;57.13
15678;BME280;7939;50.814;6.368;2024-03-02T05:51:12;98389.38;;;12.31;57.36
15678;BME280;7939;50.814;6.368;2024-03-02T05:53:39;98397.94;;;12.30;57.98
15678;BME280;7939;50.814;6.368;2024-03-02T05:56:05;98410.69;;;12.31;57.44
15678;BME280;7939;50.814;6.368;2024-03-02T05:58:32;98415.03;;;12.29;57.63
15678;BME280;7939;50.814;6.368;2024-03-02T06:01:11;98416.75;;;12.29;57.69
15678;BME280;7939;50.814;6.368;2024-03-02T06:03:38;98411.63;;;12.29;57.49
15678;BME280;7939;50.814;6.368;2024-03-02T06:06:06;98408.25;;;12.28;57.63
15678;BME280;7939;50.814;6.368;2024-03-02T06:08:33;98406.50;;;12.29;57.73
15678;BME280;7939;50.814;6.368;2024-03-02T06:11:00;98407.41;;;12.28;57.88
15678;BME280;7939;50.814;6.368;2024-03-02T06:13:27;98407.47;;;12.26;57.30
15678;BME280;7939;50.814;6.368;2024-03-02T06:15:53;98407.41;;;12.28;57.81
15678;BME280;7939;50.814;6.368;2024-03-02T06:18:20;98409.13;;;12.27;57.00
15678;BME280;7939;50.814;6.368;2024-03-02T06:20:47;98411.69;;;12.27;57.28
15678;BME280;7939;50.814;6.368;2024-03-02T06:23:16;98404.06;;;12.26;57.61
15678;BME280;7939;50.814;6.368;2024-03-02T06:25:42;98404.91;;;12.26;57.72
15678;BME280;7939;50.814;6.368;2024-03-02T06:28:09;98399.72;;;12.28;56.97
15678;BME280;7939;50.814;6.368;2024-03-02T06:30:36;98406.56;;;12.27;57.75
15678;BME280;7939;50.814;6.368;2024-03-02T06:33:03;98420.22;;;12.28;57.05
15678;BME280;7939;50.814;6.368;2024-03-02T06:35:31;98417.66;;;12.28;57.34
15678;BME280;7939;50.814;6.368;2024-03-02T06:37:58;98420.22;;;12.28;56.90
15678;BME280;7939;50.814;6.368;2024-03-02T06:40:26;98425.41;;;12.25;56.81
15678;BME280;7939;50.814;6.368;2024-03-02T06:42:52;98421.09;;;12.27;57.07
15678;BME280;7939;50.814;6.368;2024-03-02T06:45:19;98430.50;;;12.26;58.13
15678;BME280;7939;50.814;6.368;2024-03-02T06:47:46;98427.09;;;12.26;57.49
15678;BME280;7939;50.814;6.368;2024-03-02T06:50:13;98433.06;;;12.26;57.92
15678;BME280;7939;50.814;6.368;2024-03-02T06:52:39;98419.44;;;12.26;57.26
15678;BME280;7939;50.814;6.368;2024-03-02T06:55:07;98422.00;;;12.24;57.51
15678;BME280;7939;50.814;6.368;2024-03-02T06:57:35;98433.06;;;12.26;57.94
15678;BME280;7939;50.814;6.368;2024-03-02T07:00:02;98435.75;;;12.22;57.06
15678;BME280;7939;50.814;6.368;2024-03-02T07:02:30;98439.03;;;12.25;57.66
15678;BME280;7939;50.814;6.368;2024-03-02T07:04:57;98450.16;;;12.26;57.93
15678;BME280;7939;50.814;6.368;2024-03-02T07:07:24;98451.00;;;12.26;57.62
15678;BME280;7939;50.814;6.368;2024-03-02T07:09:51;98454.41;;;12.25;57.70
15678;BME280;7939;50.814;6.368;2024-03-02T07:12:17;98438.22;;;12.25;57.94
15678;BME280;7939;50.814;6.368;2024-03-02T07:14:46;98427.94;;;12.26;57.51
15678;BME280;7939;50.814;6.368;2024-03-02T07:17:36;98445.81;;;12.28;57.40
15678;BME280;7939;50.814;6.368;2024-03-02T07:20:03;98456.13;;;12.26;57.26
15678;BME280;7939;50.814;6.368;2024-03-02T07:22:30;98468.03;;;12.27;56.90
15678;BME280;7939;50.814;6.368;2024-03-02T07:24:56;98466.38;;;12.26;57.65
15678;BME280;7939;50.814;6.368;2024-03-02T07:27:23;98461.25;;;12.26;58.28
15678;BME280;7939;50.814;6.368;2024-03-02T07:29:51;98467.19;;;12.27;57.24
15678;BME280;7939;50.814;6.368;2024-03-02T07:32:18;98471.50;;;12.26;57.90
15678;BME280;7939;50.814;6.368;2024-03-02T07:34:44;98477.44;;;12.27;57.48
15678;BME280;7939;50.814;6.368;2024-03-02T07:37:11;98483.41;;;12.27;57.63
15678;BME280;7939;50.814;6.368;2024-03-02T07:39:38;98474.88;;;12.27;58.11
15678;BME280;7939;50.814;6.368;2024-03-02T07:42:05;98471.50;;;12.26;56.98
15678;BME280;7939;50.814;6.368;2024-03-02T07:44:32;98473.22;;;12.26;57.58
15678;BME280;7939;50.814;6.368;2024-03-02T07:47:00;98482.59;;;12.25;57.96
15678;BME280;7939;50.814;6.368;2024-03-02T07:49:27;98486.03;;;12.26;57.66
15678;BME280;7939;50.814;6.368;2024-03-02T07:51:54;98484.28;;;12.26;56.96
15678;BME280;7939;50.814;6.368;2024-03-02T07:54:20;98485.13;;;12.27;57.42
15678;BME280;7939;50.814;6.368;2024-03-02T07:56:47;98479.19;;;12.25;57.85
15678;BME280;7939;50.814;6.368;2024-03-02T07:59:14;98475.66;;;12.29;57.19
15678;BME280;7939;50.814;6.368;2024-03-02T08:01:41;98481.69;;;12.28;57.77
15678;BME280;7939;50.814;6.368;2024-03-02T08:04:09;98495.31;;;12.28;56.97
15678;BME280;7939;50.814;6.368;2024-03-02T08:06:36;98497.84;;;12.30;57.25
15678;BME280;7939;50.814;6.368;2024-03-02T08:09:02;98503.84;;;12.29;56.71
15678;BME280;7939;50.814;6.368;2024-03-02T08:11:34;98499.56;;;12.29;56.95
15678;BME280;7939;50.814;6.368;2024-03-02T08:14:01;98491.00;;;12.30;57.77
15678;BME280;7939;50.814;6.368;2024-03-02T08:16:28;98487.59;;;12.30;57.40
15678;BME280;7939;50.814;6.368;2024-03-02T08:18:56;98491.88;;;12.29;57.34
15678;BME280;7939;50.814;6.368;2024-03-02T08:21:24;98491.00;;;12.30;57.05
15678;BME280;7939;50.814;6.368;2024-03-02T08:23:51;98489.25;;;12.31;56.96
15678;BME280;7939;50.814;6.368;2024-03-02T08:26:18;98483.31;;;12.30;57.78
15678;BME280;7939;50.814;6.368;2024-03-02T08:28:45;98487.53;;;12.31;57.53
15678;BME280;7939;50.814;6.368;2024-03-02T08:31:12;98492.66;;;12.33;56.63
15678;BME280;7939;50.814;6.368;2024-03-02T08:33:39;98488.38;;;12.32;56.88
15678;BME280;7939;50.814;6.368;2024-03-02T08:36:06;98487.53;;;12.31;57.17
15678;BME280;7939;50.814;6.368;2024-03-02T08:38:36;98491.81;;;12.31;56.96
15678;BME280;7939;50.814;6.368;2024-03-02T08:41:03;98487.53;;;12.33;56.33
15678;BME280;7939;50.814;6.368;2024-03-02T08:43:30;98494.31;;;12.34;57.71
15678;BME280;7939;50.814;6.368;2024-03-02T08:45:57;98498.56;;;12.35;57.57
15678;BME280;7939;50.814;6.368;2024-03-02T08:48:24;98489.16;;;12.35;57.43
15678;BME280;7939;50.814;6.368;2024-03-02T08:50:50;98492.50;;;12.37;56.96
15678;BME280;7939;50.814;6.368;2024-03-02T08:53:17;98494.22;;;12.37;56.79
15678;BME280;7939;50.814;6.368;2024-03-02T08:55:46;98498.50;;;12.36;56.79
15678;BME280;7939;50.814;6.368;2024-03-02T08:58:12;98501.06;;;12.36;56.92
15678;BME280;7939;50.814;6.368;2024-03-02T09:00:39;98500.16;;;12.39;56.05
15678;BME280;7939;50.814;6.368;2024-03-02T09:03:07;98497.63;;;12.37;57.07
15678;BME280;7939;50.814;6.368;2024-03-02T09:05:34;98498.44;;;12.39;56.97
15678;BME280;7939;50.814;6.368;2024-03-02T09:08:01;98501.00;;;12.39;56.26
15678;BME280;7939;50.814;6.368;2024-03-02T09:10:29;98510.31;;;12.42;56.63
15678;BME280;7939;50.814;6.368;2024-03-02T09:12:57;98506.03;;;12.42;56.37
15678;BME280;7939;50.814;6.368;2024-03-02T09:15:24;98506.84;;;12.45;56.47
15678;BME280;7939;50.814;6.368;2024-03-02T09:17:51;98512.81;;;12.43;57.01
15678;BME280;7939;50.814;6.368;2024-03-02T09:20:17;98511.09;;;12.44;55.96
15678;BME280;7939;50.814;6.368;2024-03-02T09:22:44;98507.69;;;12.45;56.84
15678;BME280;7939;50.814;6.368;2024-03-02T09:25:12;98510.25;;;12.45;56.44
15678;BME280;7939;50.814;6.368;2024-03-02T09:27:39;98515.38;;;12.43;56.57
15678;BME280;7939;50.814;6.368;2024-03-02T09:30:10;98523.00;;;12.47;56.00
15678;BME280;7939;50.814;6.368;2024-03-02T09:32:39;98519.56;;;12.48;56.26
15678;BME280;7939;50.814;6.368;2024-03-02T09:35:06;98525.47;;;12.50;55.53
15678;BME280;7939;50.814;6.368;2024-03-02T09:37:33;98517.78;;;12.50;56.19
15678;BME280;7939;50.814;6.368;2024-03-02T09:40:00;98518.59;;;12.52;56.28
15678;BME280;7939;50.814;6.368;2024-03-02T09:42:26;98523.66;;;12.53;56.71
15678;BME280;7939;50.814;6.368;2024-03-02T09:44:53;98520.16;;;12.56;55.86
15678;BME280;7939;50.814;6.368;2024-03-02T09:47:21;98516.72;;;12.57;56.25
15678;BME280;7939;50.814;6.368;2024-03-02T09:49:48;98511.56;;;12.58;56.06
15678;BME280;7939;50.814;6.368;2024-03-02T09:52:16;98512.34;;;12.60;56.71
15678;BME280;7939;50.814;6.368;2024-03-02T09:54:42;98514.84;;;12.63;56.03
15678;BME280;7939;50.814;6.368;2024-03-02T09:57:09;98513.13;;;12.64;56.98
15678;BME280;7939;50.814;6.368;2024-03-02T09:59:36;98504.50;;;12.66;57.36
15678;BME280;7939;50.814;6.368;2024-03-02T10:02:03;98499.41;;;12.65;56.11
15678;BME280;7939;50.814;6.368;2024-03-02T10:04:34;98495.91;;;12.67;57.10
15678;BME280;7939;50.814;6.368;2024-03-02T10:07:12;98504.38;;;12.71;55.86
15678;BME280;7939;50.814;6.368;2024-03-02T10:09:39;98503.47;;;12.72;56.61
15678;BME280;7939;50.814;6.368;2024-03-02T10:12:07;98499.13;;;12.74;57.26
15678;BME280;7939;50.814;6.368;2024-03-02T10:14:34;98500.72;;;12.78;56.53
15678;BME280;7939;50.814;6.368;2024-03-02T10:17:05;98485.31;;;12.80;56.80
15678;BME280;7939;50.814;6.368;2024-03-02T10:19:35;98489.41;;;12.85;56.44
15678;BME280;7939;50.814;6.368;2024-03-02T10:22:03;98480.00;;;12.86;55.58
15678;BME280;7939;50.814;6.368;2024-03-02T10:24:38;98469.69;;;12.87;55.60
15678;BME280;7939;50.814;6.368;2024-03-02T10:27:09;98466.97;;;12.92;56.92
15678;BME280;7939;50.814;6.368;2024-03-02T10:29:37;98464.34;;;12.95;56.53
15678;BME280;7939;50.814;6.368;2024-03-02T10:32:05;98458.31;;;12.96;56.40
15678;BME280;7939;50.814;6.368;2024-03-02T10:34:33;98465.91;;;12.99;56.34
15678;BME280;7939;50.814;6.368;2024-03-02T10:37:01;98460.63;;;13.04;55.37
15678;BME280;7939;50.814;6.368;2024-03-02T10:39:28;98460.59;;;13.05;55.32
15678;BME280;7939;50.814;6.368;2024-03-02T10:41:58;98456.16;;;13.10;56.58
15678;BME280;7939;50.814;6.368;2024-03-02T10:44:25;98461.19;;;13.13;55.49
15678;BME280;7939;50.814;6.368;2024-03-02T10:46:53;98464.50;;;13.17;56.75
15678;BME280;7939;50.814;6.368;2024-03-02T10:49:22;98460.97;;;13.19;55.98
15678;BME280;7939;50.814;6.368;2024-03-02T10:51:50;98455.75;;;13.24;55.80
15678;BME280;7939;50.814;6.368;2024-03-02T10:54:17;98454.81;;;13.27;56.54
15678;BME280;7939;50.814;6.368;2024-03-02T10:56:52;98453.03;;;13.29;56.05
15678;BME280;7939;50.814;6.368;2024-03-02T10:59:26;98451.25;;;13.31;55.79
15678;BME280;7939;50.814;6.368;2024-03-02T11:01:55;98459.75;;;13.33;56.39
15678;BME280;7939;50.814;6.368;2024-03-02T11:04:24;98457.03;;;13.37;55.97
15678;BME280;7939;50.814;6.368;2024-03-02T11:06:58;98454.38;;;13.40;55.60
15678;BME280;7939;50.814;6.368;2024-03-02T11:09:27;98455.94;;;13.44;56.05
15678;BME280;7939;50.814;6.368;2024-03-02T11:12:00;98450.72;;;13.47;55.73
15678;BME280;7939;50.814;6.368;2024-03-02T11:14:30;98455.72;;;13.50;55.09
15678;BME280;7939;50.814;6.368;2024-03-02T11:16:58;98458.28;;;13.52;54.83
15678;BME280;7939;50.814;6.368;2024-03-02T11:19:27;98459.00;;;13.56;55.95
15678;BME280;7939;50.814;6.368;2024-03-02T11:21:56;98455.50;;;13.58;54.71
15678;BME280;7939;50.814;6.368;2024-03-02T11:24:28;98457.94;;;13.61;54.84
15678;BME280;7939;50.814;6.368;2024-03-02T11:26:58;98448.44;;;13.65;55.29
15678;BME280;7939;50.814;6.368;2024-03-02T11:29:44;98437.97;;;13.69;55.11
15678;BME280;7939;50.814;6.368;2024-03-02T11:32:20;98427.56;;;13.74;54.46
15678;BME280;7939;50.814;6.368;2024-03-02T11:34:49;98435.19;;;13.75;55.73
15678;BME280;7939;50.814;6.368;2024-03-02T11:37:18;98429.09;;;13.80;55.17
15678;BME280;7939;50.814;6.368;2024-03-02T11:39:48;98427.41;;;13.79;54.84
15678;BME280;7939;50.814;6.368;2024-03-02T11:42:15;98422.16;;;13.82;54.40
15678;BME280;7939;50.814;6.368;2024-03-02T11:44:43;98429.03;;;13.81;55.08
15678;BME280;7939;50.814;6.368;2024-03-02T11:47:12;98424.69;;;13.83;54.59
15678;BME280;7939;50.814;6.368;2024-03-02T11:49:43;98425.56;;;13.82;54.80
15678;BME280;7939;50.814;6.368;2024-03-02T11:52:11;98412.56;;;13.87;55.74
15678;BME280;7939;50.814;6.368;2024-03-02T11:54:40;98400.56;;;13.87;54.54
15678;BME280;7939;50.814;6.368;2024-03-02T11:57:12;98390.22;;;13.89;55.45
15678;BME280;7939;50.814;6.368;2024-03-02T11:59:40;98386.81;;;13.88;54.71
15678;BME280;7939;50.814;6.368;2024-03-02T12:02:14;98377.34;;;13.90;54.57
15678;BME280;7939;50.814;6.368;2024-03-02T12:04:42;98371.38;;;13.90;54.26
15678;BME280;7939;50.814;6.368;2024-03-02T12:07:10;98367.91;;;13.91;54.96
15678;BME280;7939;50.814;6.368;2024-03-02T12:09:37;98367.09;;;13.90;55.47
15678;BME280;7939;50.814;6.368;2024-03-02T12:12:07;98368.69;;;13.93;54.69
15678;BME280;7939;50.814;6.368;2024-03-02T12:14:34;98366.97;;;13.93;54.86
15678;BME280;7939;50.814;6.368;2024-03-02T12:17:01;98369.47;;;13.95;53.87
15678;BME280;7939;50.814;6.368;2024-03-02T12:19:29;98378.81;;;13.97;54.03
15678;BME280;7939;50.814;6.368;2024-03-02T12:21:56;98371.88;;;13.99;54.60
15678;BME280;7939;50.814;6.368;2024-03-02T12:24:26;98369.38;;;13.98;54.27
15678;BME280;7939;50.814;6.368;2024-03-02T12:26:53;98370.13;;;14.00;54.82
15678;BME280;7939;50.814;6.368;2024-03-02T12:29:21;98366.56;;;14.04;54.71
15678;BME280;7939;50.814;6.368;2024-03-02T12:31:49;98376.78;;;14.06;54.94
15678;BME280;7939;50.814;6.368;2024-03-02T12:34:18;98367.28;;;14.08;54.97
15678;BME280;7939;50.814;6.368;2024-03-02T12:36:46;98366.28;;;14.12;54.42
15678;BME280;7939;50.814;6.368;2024-03-02T12:39:15;98363.78;;;14.10;54.11
15678;BME280;7939;50.814;6.368;2024-03-02T12:41:42;98359.34;;;14.14;54.48
15678;BME280;7939;50.814;6.368;2024-03-02T12:44:09;98356.78;;;14.14;54.31
15678;BME280;7939;50.814;6.368;2024-03-02T12:46:37;98358.50;;;14.13;53.42
15678;BME280;7939;50.814;6.368;2024-03-02T12:49:08;98361.06;;;14.15;54.06
15678;BME280;7939;50.814;6.368;2024-03-02T12:51:36;98371.34;;;14.13;53.38
15678;BME280;7939;50.814;6.368;2024-03-02T12:54:03;98369.53;;;14.17;53.94
15678;BME280;7939;50.814;6.368;2024-03-02T12:56:31;98360.16;;;14.16;54.79
15678;BME280;7939;50.814;6.368;2024-03-02T12:58:58;98359.09;;;14.21;54.53
15678;BME280;7939;50.814;6.368;2024-03-02T13:01:25;98351.38;;;14.21;54.24
15678;BME280;7939;50.814;6.368;2024-03-02T13:03:54;98350.53;;;14.21;53.92
15678;BME280;7939;50.814;6.368;2024-03-02T13:06:21;98352.22;;;14.22;54.19
15678;BME280;7939;50.814;6.368;2024-03-02T13:08:49;98338.47;;;14.23;53.84
15678;BME280;7939;50.814;6.368;2024-03-02T13:11:16;98331.47;;;14.26;53.78
15678;BME280;7939;50.814;6.368;2024-03-02T13:13:43;98331.34;;;14.29;54.77